sensor_id;sensor_type;location;lat;lon;timestamp;temperature;humidity
20380;DHT22;10349;48.666;8.948;2023-05-14T00:02:13;10.30;99.90
20380;DHT22;10349;48.666;8.948;2023-05-14T00:04:38;10.30;99.90
20380;DHT22;10349;48.666;8.948;2023-05-14T00:07:04;10.20;99.90
20380;DHT22;10349;48.666;8.948;2023-05-14T00:09:31;10.20;99.90
20380;DHT22;10349;48.666;8.948;2023-05-14T00:11:57;10.20;99.90
20380;DHT22;10349;48.666;8.948;2023-05-14T00:14:22;10.20;99.90
20380;DHT22;10349;48.666;8.948;2023-05-14T00:16:49;10.10;99.90
20380;DHT22;10349;48.666;8.948;2023-05-14T00:19:15;10.10;99.90
20380;DHT22;10349;48.666;8.948;2023-05-14T00:21:41;10.10;99.90
20380;DHT22;10349;48.666;8.948;2023-05-14T00:24:07;10.10;99.90
20380;DHT22;10349;48.666;8.948;2023-05-14T00:26:33;10.10;99.90
20380;DHT22;10349;48.666;8.948;2023-05-14T00:28:58;10.10;99.90
20380;DHT22;10349;48.666;8.948;2023-05-14T00:31:24;10.10;99.90
20380;DHT22;10349;48.666;8.948;2023-05-14T00:33:49;10.10;99.90
20380;DHT22;10349;48.666;8.948;2023-05-14T00:36:15;10.10;99.90
20380;DHT22;10349;48.666;8.948;2023-05-14T00:38:41;10.10;99.90
20380;DHT22;10349;48.666;8.948;2023-05-14T00:41:06;10.20;99.90
20380;DHT22;10349;48.666;8.948;2023-05-14T00:43:32;10.20;99.90
20380;DHT22;10349;48.666;8.948;2023-05-14T00:45:58;10.10;99.90
20380;DHT22;10349;48.666;8.948;2023-05-14T00:48:24;10.10;99.90
20380;DHT22;10349;48.666;8.948;2023-05-14T00:50:51;10.10;99.90
20380;DHT22;10349;48.666;8.948;2023-05-14T00:53:18;10.10;99.90
20380;DHT22;10349;48.666;8.948;2023-05-14T00:55:44;10.10;99.90
20380;DHT22;10349;48.666;8.948;2023-05-14T00:58:12;10.10;99.90
20380;DHT22;10349;48.666;8.948;2023-05-14T01:00:39;10.10;99.90
20380;DHT22;10349;48.666;8.948;2023-05-14T01:03:06;10.10;99.90
20380;DHT22;10349;48.666;8.948;2023-05-14T01:08:52;10.00;99.90
20380;DHT22;10349;48.666;8.948;2023-05-14T01:11:31;10.00;99.90
20380;DHT22;10349;48.666;8.948;2023-05-14T01:16:33;9.90;99.90
20380;DHT22;10349;48.666;8.948;2023-05-14T01:18:59;9.90;99.90
20380;DHT22;10349;48.666;8.948;2023-05-14T01:21:38;9.90;99.90
20380;DHT22;10349;48.666;8.948;2023-05-14T01:24:06;10.00;99.90
20380;DHT22;10349;48.666;8.948;2023-05-14T01:26:32;10.10;99.90
20380;DHT22;10349;48.666;8.948;2023-05-14T01:29:18;10.00;99.90
20380;DHT22;10349;48.666;8.948;2023-05-14T01:31:48;9.90;99.90
20380;DHT22;10349;48.666;8.948;2023-05-14T01:34:15;10.00;99.90
20380;DHT22;10349;48.666;8.948;2023-05-14T01:36:43;9.90;99.90
20380;DHT22;10349;48.666;8.948;2023-05-14T01:39:09;9.90;99.90
20380;DHT22;10349;48.666;8.948;2023-05-14T01:41:37;9.80;99.90
20380;DHT22;10349;48.666;8.948;2023-05-14T01:44:04;9.80;99.90
20380;DHT22;10349;48.666;8.948;2023-05-14T01:46:30;9.80;99.90
20380;DHT22;10349;48.666;8.948;2023-05-14T01:48:57;9.80;99.90
20380;DHT22;10349;48.666;8.948;2023-05-14T01:51:23;9.80;99.90
20380;DHT22;10349;48.666;8.948;2023-05-14T01:53:48;9.80;99.90
20380;DHT22;10349;48.666;8.948;2023-05-14T01:56:14;9.80;99.90
20380;DHT22;10349;48.666;8.948;2023-05-14T01:58:40;9.80;99.90
20380;DHT22;10349;48.666;8.948;2023-05-14T02:01:05;9.80;99.90
20380;DHT22;10349;48.666;8.948;2023-05-14T02:03:31;9.80;99.90
20380;DHT22;10349;48.666;8.948;2023-05-14T02:05:57;9.70;99.90
20380;DHT22;10349;48.666;8.948;2023-05-14T02:08:23;9.80;99.90
20380;DHT22;10349;48.666;8.948;2023-05-14T02:10:48;9.80;99.90
20380;DHT22;10349;48.666;8.948;2023-05-14T02:13:15;9.80;99.90
20380;DHT22;10349;48.666;8.948;2023-05-14T02:15:41;9.80;99.90
20380;DHT22;10349;48.666;8.948;2023-05-14T02:18:06;9.80;99.90
20380;DHT22;10349;48.666;8.948;2023-05-14T02:20:32;9.90;99.90
20380;DHT22;10349;48.666;8.948;2023-05-14T02:22:58;9.90;99.90
20380;DHT22;10349;48.666;8.948;2023-05-14T02:25:24;9.90;99.90
20380;DHT22;10349;48.666;8.948;2023-05-14T02:27:50;9.80;99.90
20380;DHT22;10349;48.666;8.948;2023-05-14T02:30:15;9.90;99.90
20380;DHT22;10349;48.666;8.948;2023-05-14T02:32:41;9.80;99.90
20380;DHT22;10349;48.666;8.948;2023-05-14T02:35:07;9.80;99.90
20380;DHT22;10349;48.666;8.948;2023-05-14T02:37:33;9.80;99.90
20380;DHT22;10349;48.666;8.948;2023-05-14T02:39:59;9.80;99.90
20380;DHT22;10349;48.666;8.948;2023-05-14T02:42:25;9.80;99.90
20380;DHT22;10349;48.666;8.948;2023-05-14T02:44:51;9.70;99.90
20380;DHT22;10349;48.666;8.948;2023-05-14T02:47:17;9.70;99.90
20380;DHT22;10349;48.666;8.948;2023-05-14T02:49:43;9.60;99.90
20380;DHT22;10349;48.666;8.948;2023-05-14T02:52:08;9.50;99.90
20380;DHT22;10349;48.666;8.948;2023-05-14T02:54:34;9.50;99.90
20380;DHT22;10349;48.666;8.948;2023-05-14T02:57:01;9.40;99.90
20380;DHT22;10349;48.666;8.948;2023-05-14T02:59:26;9.40;99.90
20380;DHT22;10349;48.666;8.948;2023-05-14T03:01:52;9.40;99.90
20380;DHT22;10349;48.666;8.948;2023-05-14T03:04:18;9.40;99.90
20380;DHT22;10349;48.666;8.948;2023-05-14T03:06:44;9.30;99.90
20380;DHT22;10349;48.666;8.948;2023-05-14T03:09:09;9.30;99.90
20380;DHT22;10349;48.666;8.948;2023-05-14T03:11:35;9.30;99.90
20380;DHT22;10349;48.666;8.948;2023-05-14T03:14:01;9.30;99.90
20380;DHT22;10349;48.666;8.948;2023-05-14T03:16:29;9.20;99.90
20380;DHT22;10349;48.666;8.948;2023-05-14T03:18:55;9.20;99.90
20380;DHT22;10349;48.666;8.948;2023-05-14T03:21:21;9.20;99.90
20380;DHT22;10349;48.666;8.948;2023-05-14T03:23:47;9.20;99.90
20380;DHT22;10349;48.666;8.948;2023-05-14T03:26:13;9.30;99.90
20380;DHT22;10349;48.666;8.948;2023-05-14T03:28:39;9.30;99.90
20380;DHT22;10349;48.666;8.948;2023-05-14T03:31:05;9.30;99.90
20380;DHT22;10349;48.666;8.948;2023-05-14T03:33:31;9.30;99.90
20380;DHT22;10349;48.666;8.948;2023-05-14T03:35:57;9.30;99.90
20380;DHT22;10349;48.666;8.948;2023-05-14T03:38:22;9.30;99.90
20380;DHT22;10349;48.666;8.948;2023-05-14T03:40:48;9.40;99.90
20380;DHT22;10349;48.666;8.948;2023-05-14T03:43:13;9.30;99.90
20380;DHT22;10349;48.666;8.948;2023-05-14T03:45:40;9.30;99.90
20380;DHT22;10349;48.666;8.948;2023-05-14T03:48:06;9.30;99.90
20380;DHT22;10349;48.666;8.948;2023-05-14T03:50:32;9.30;99.90
20380;DHT22;10349;48.666;8.948;2023-05-14T03:52:57;9.30;99.90
20380;DHT22;10349;48.666;8.948;2023-05-14T03:55:23;9.20;99.90
20380;DHT22;10349;48.666;8.948;2023-05-14T03:57:49;9.30;99.90
20380;DHT22;10349;48.666;8.948;2023-05-14T04:00:15;9.40;99.90
20380;DHT22;10349;48.666;8.948;2023-05-14T04:02:43;9.40;99.90
20380;DHT22;10349;48.666;8.948;2023-05-14T04:05:09;9.50;99.90
20380;DHT22;10349;48.666;8.948;2023-05-14T04:07:35;9.40;99.90
20380;DHT22;10349;48.666;8.948;2023-05-14T04:10:02;9.40;99.90
20380;DHT22;10349;48.666;8.948;2023-05-14T04:12:28;9.40;99.90
20380;DHT22;10349;48.666;8.948;2023-05-14T04:14:53;9.50;99.90
20380;DHT22;10349;48.666;8.948;2023-05-14T04:17:19;9.40;99.90
20380;DHT22;10349;48.666;8.948;2023-05-14T04:19:45;9.40;99.90
20380;DHT22;10349;48.666;8.948;2023-05-14T04:22:10;9.40;99.90
20380;DHT22;10349;48.666;8.948;2023-05-14T04:24:36;9.50;99.90
20380;DHT22;10349;48.666;8.948;2023-05-14T04:27:02;9.40;99.90
20380;DHT22;10349;48.666;8.948;2023-05-14T04:29:28;9.40;99.90
20380;DHT22;10349;48.666;8.948;2023-05-14T04:31:53;9.40;99.90
20380;DHT22;10349;48.666;8.948;2023-05-14T04:34:19;9.40;99.90
20380;DHT22;10349;48.666;8.948;2023-05-14T04:36:45;9.40;99.90
20380;DHT22;10349;48.666;8.948;2023-05-14T04:39:10;9.40;99.90
20380;DHT22;10349;48.666;8.948;2023-05-14T04:41:37;9.40;99.90
20380;DHT22;10349;48.666;8.948;2023-05-14T04:44:03;9.40;99.90
20380;DHT22;10349;48.666;8.948;2023-05-14T04:46:29;9.50;99.90
20380;DHT22;10349;48.666;8.948;2023-05-14T04:48:54;9.50;99.90
20380;DHT22;10349;48.666;8.948;2023-05-14T04:51:21;9.50;99.90
20380;DHT22;10349;48.666;8.948;2023-05-14T04:53:47;9.50;99.90
20380;DHT22;10349;48.666;8.948;2023-05-14T04:56:12;9.50;99.90
20380;DHT22;10349;48.666;8.948;2023-05-14T04:58:38;9.60;99.90
20380;DHT22;10349;48.666;8.948;2023-05-14T05:01:04;9.50;99.90
20380;DHT22;10349;48.666;8.948;2023-05-14T05:03:30;9.60;99.90
20380;DHT22;10349;48.666;8.948;2023-05-14T05:05:56;9.50;99.90
20380;DHT22;10349;48.666;8.948;2023-05-14T05:08:22;9.60;99.90
20380;DHT22;10349;48.666;8.948;2023-05-14T05:10:47;9.60;99.90
20380;DHT22;10349;48.666;8.948;2023-05-14T05:13:13;9.60;99.90
20380;DHT22;10349;48.666;8.948;2023-05-14T05:15:41;9.70;99.90
20380;DHT22;10349;48.666;8.948;2023-05-14T05:18:07;9.70;99.90
20380;DHT22;10349;48.666;8.948;2023-05-14T05:20:33;9.70;99.90
20380;DHT22;10349;48.666;8.948;2023-05-14T05:22:58;9.70;99.90
20380;DHT22;10349;48.666;8.948;2023-05-14T05:25:24;9.70;99.90
20380;DHT22;10349;48.666;8.948;2023-05-14T05:27:49;9.70;99.90
20380;DHT22;10349;48.666;8.948;2023-05-14T05:30:15;9.70;99.90
20380;DHT22;10349;48.666;8.948;2023-05-14T05:32:41;9.70;99.90
20380;DHT22;10349;48.666;8.948;2023-05-14T05:35:07;9.70;99.90
20380;DHT22;10349;48.666;8.948;2023-05-14T05:37:32;9.70;99.90
20380;DHT22;10349;48.666;8.948;2023-05-14T05:39:58;9.70;99.90
20380;DHT22;10349;48.666;8.948;2023-05-14T05:42:24;9.70;99.90
20380;DHT22;10349;48.666;8.948;2023-05-14T05:44:50;9.70;99.90
20380;DHT22;10349;48.666;8.948;2023-05-14T05:47:15;9.70;99.90
20380;DHT22;10349;48.666;8.948;2023-05-14T05:49:41;9.70;99.90
20380;DHT22;10349;48.666;8.948;2023-05-14T05:52:07;9.80;99.90
20380;DHT22;10349;48.666;8.948;2023-05-14T05:54:33;9.70;99.90
20380;DHT22;10349;48.666;8.948;2023-05-14T05:57:00;9.80;99.90
20380;DHT22;10349;48.666;8.948;2023-05-14T05:59:26;9.80;99.90
20380;DHT22;10349;48.666;8.948;2023-05-14T06:01:52;9.80;99.90
20380;DHT22;10349;48.666;8.948;2023-05-14T06:04:17;9.80;99.90
20380;DHT22;10349;48.666;8.948;2023-05-14T06:06:43;9.80;99.90
20380;DHT22;10349;48.666;8.948;2023-05-14T06:09:08;9.60;99.90
20380;DHT22;10349;48.666;8.948;2023-05-14T06:11:34;9.70;99.90
20380;DHT22;10349;48.666;8.948;2023-05-14T06:14:00;9.70;99.90
20380;DHT22;10349;48.666;8.948;2023-05-14T06:16:26;9.70;99.90
20380;DHT22;10349;48.666;8.948;2023-05-14T06:18:52;9.70;99.90
20380;DHT22;10349;48.666;8.948;2023-05-14T06:21:18;9.70;99.90
20380;DHT22;10349;48.666;8.948;2023-05-14T06:23:44;9.70;99.90
20380;DHT22;10349;48.666;8.948;2023-05-14T06:26:10;9.70;99.90
20380;DHT22;10349;48.666;8.948;2023-05-14T06:28:35;9.70;99.90
20380;DHT22;10349;48.666;8.948;2023-05-14T06:31:01;9.70;99.90
20380;DHT22;10349;48.666;8.948;2023-05-14T06:33:27;9.70;99.90
20380;DHT22;10349;48.666;8.948;2023-05-14T06:36:03;9.70;99.90
20380;DHT22;10349;48.666;8.948;2023-05-14T06:38:30;9.70;99.90
20380;DHT22;10349;48.666;8.948;2023-05-14T06:40:56;9.70;99.90
20380;DHT22;10349;48.666;8.948;2023-05-14T06:43:21;9.70;99.90
20380;DHT22;10349;48.666;8.948;2023-05-14T06:45:48;9.70;99.90
20380;DHT22;10349;48.666;8.948;2023-05-14T06:48:14;9.70;99.90
20380;DHT22;10349;48.666;8.948;2023-05-14T06:50:40;9.80;99.90
20380;DHT22;10349;48.666;8.948;2023-05-14T06:53:05;9.90;99.90
20380;DHT22;10349;48.666;8.948;2023-05-14T06:55:31;9.90;99.90
20380;DHT22;10349;48.666;8.948;2023-05-14T06:57:57;9.90;99.90
20380;DHT22;10349;48.666;8.948;2023-05-14T07:00:22;10.00;99.90
20380;DHT22;10349;48.666;8.948;2023-05-14T07:02:48;10.00;99.90
20380;DHT22;10349;48.666;8.948;2023-05-14T07:05:14;10.00;99.90
20380;DHT22;10349;48.666;8.948;2023-05-14T07:07:39;10.00;99.90
20380;DHT22;10349;48.666;8.948;2023-05-14T07:10:06;10.10;99.90
20380;DHT22;10349;48.666;8.948;2023-05-14T07:12:32;10.20;99.90
20380;DHT22;10349;48.666;8.948;2023-05-14T07:14:58;10.20;99.90
20380;DHT22;10349;48.666;8.948;2023-05-14T07:17:24;10.20;99.90
20380;DHT22;10349;48.666;8.948;2023-05-14T07:19:49;10.10;99.90
20380;DHT22;10349;48.666;8.948;2023-05-14T07:22:15;10.30;99.90
20380;DHT22;10349;48.666;8.948;2023-05-14T07:24:41;10.30;99.90
20380;DHT22;10349;48.666;8.948;2023-05-14T07:27:06;10.30;99.90
20380;DHT22;10349;48.666;8.948;2023-05-14T07:29:33;10.40;99.90
20380;DHT22;10349;48.666;8.948;2023-05-14T07:32:00;10.40;99.90
20380;DHT22;10349;48.666;8.948;2023-05-14T07:34:26;10.50;99.90
20380;DHT22;10349;48.666;8.948;2023-05-14T07:36:51;10.60;99.90
20380;DHT22;10349;48.666;8.948;2023-05-14T07:39:17;10.70;99.90
20380;DHT22;10349;48.666;8.948;2023-05-14T07:41:43;10.70;99.90
20380;DHT22;10349;48.666;8.948;2023-05-14T07:44:09;10.60;99.90
20380;DHT22;10349;48.666;8.948;2023-05-14T07:46:35;10.70;99.90
20380;DHT22;10349;48.666;8.948;2023-05-14T07:49:02;10.90;99.90
20380;DHT22;10349;48.666;8.948;2023-05-14T07:51:27;10.80;99.90
20380;DHT22;10349;48.666;8.948;2023-05-14T07:53:53;10.90;99.90
20380;DHT22;10349;48.666;8.948;2023-05-14T07:56:21;10.90;99.90
20380;DHT22;10349;48.666;8.948;2023-05-14T07:58:47;11.00;99.90
20380;DHT22;10349;48.666;8.948;2023-05-14T08:01:13;11.00;99.90
20380;DHT22;10349;48.666;8.948;2023-05-14T08:03:38;11.10;99.90
20380;DHT22;10349;48.666;8.948;2023-05-14T08:06:04;11.10;99.90
20380;DHT22;10349;48.666;8.948;2023-05-14T08:08:30;11.10;99.90
20380;DHT22;10349;48.666;8.948;2023-05-14T08:10:56;11.20;99.90
20380;DHT22;10349;48.666;8.948;2023-05-14T08:13:21;11.30;99.90
20380;DHT22;10349;48.666;8.948;2023-05-14T08:15:47;11.30;99.90
20380;DHT22;10349;48.666;8.948;2023-05-14T08:18:15;11.50;99.90
20380;DHT22;10349;48.666;8.948;2023-05-14T08:20:41;11.70;99.90
20380;DHT22;10349;48.666;8.948;2023-05-14T08:23:07;11.70;99.90
20380;DHT22;10349;48.666;8.948;2023-05-14T08:25:33;11.70;99.90
20380;DHT22;10349;48.666;8.948;2023-05-14T08:27:59;11.70;99.90
20380;DHT22;10349;48.666;8.948;2023-05-14T08:30:27;11.80;99.90
20380;DHT22;10349;48.666;8.948;2023-05-14T08:32:53;12.00;99.90
20380;DHT22;10349;48.666;8.948;2023-05-14T08:35:18;12.00;99.90
20380;DHT22;10349;48.666;8.948;2023-05-14T08:37:45;12.10;99.90
20380;DHT22;10349;48.666;8.948;2023-05-14T08:40:11;12.10;99.90
20380;DHT22;10349;48.666;8.948;2023-05-14T08:42:38;12.20;99.90
20380;DHT22;10349;48.666;8.948;2023-05-14T08:45:19;12.40;99.90
20380;DHT22;10349;48.666;8.948;2023-05-14T08:47:49;12.60;99.90
20380;DHT22;10349;48.666;8.948;2023-05-14T08:50:15;12.80;99.90
20380;DHT22;10349;48.666;8.948;2023-05-14T08:52:41;12.90;99.90
20380;DHT22;10349;48.666;8.948;2023-05-14T08:55:07;13.00;99.90
20380;DHT22;10349;48.666;8.948;2023-05-14T08:57:34;13.00;99.90
20380;DHT22;10349;48.666;8.948;2023-05-14T09:00:01;13.10;99.90
20380;DHT22;10349;48.666;8.948;2023-05-14T09:02:33;13.00;99.90
20380;DHT22;10349;48.666;8.948;2023-05-14T09:05:00;13.10;99.90
20380;DHT22;10349;48.666;8.948;2023-05-14T09:07:26;13.30;99.90
20380;DHT22;10349;48.666;8.948;2023-05-14T09:09:52;13.40;99.90
20380;DHT22;10349;48.666;8.948;2023-05-14T09:12:18;13.40;99.90
20380;DHT22;10349;48.666;8.948;2023-05-14T09:14:46;13.50;99.90
20380;DHT22;10349;48.666;8.948;2023-05-14T09:17:12;13.40;99.90
20380;DHT22;10349;48.666;8.948;2023-05-14T09:19:42;13.40;99.90
20380;DHT22;10349;48.666;8.948;2023-05-14T09:22:10;13.50;99.90
20380;DHT22;10349;48.666;8.948;2023-05-14T09:24:38;13.70;99.90
20380;DHT22;10349;48.666;8.948;2023-05-14T09:27:04;13.80;99.90
20380;DHT22;10349;48.666;8.948;2023-05-14T09:29:31;14.00;99.90
20380;DHT22;10349;48.666;8.948;2023-05-14T09:31:59;14.20;99.90
20380;DHT22;10349;48.666;8.948;2023-05-14T09:34:28;14.20;99.90
20380;DHT22;10349;48.666;8.948;2023-05-14T09:37:02;14.30;99.90
20380;DHT22;10349;48.666;8.948;2023-05-14T09:39:28;14.50;99.90
20380;DHT22;10349;48.666;8.948;2023-05-14T09:41:54;14.60;99.90
20380;DHT22;10349;48.666;8.948;2023-05-14T09:44:21;14.80;99.90
20380;DHT22;10349;48.666;8.948;2023-05-14T09:46:49;14.80;99.90
20380;DHT22;10349;48.666;8.948;2023-05-14T09:49:15;15.00;99.90
20380;DHT22;10349;48.666;8.948;2023-05-14T09:51:41;15.10;99.90
20380;DHT22;10349;48.666;8.948;2023-05-14T09:54:07;15.20;99.90
20380;DHT22;10349;48.666;8.948;2023-05-14T09:56:34;15.20;99.90
20380;DHT22;10349;48.666;8.948;2023-05-14T09:59:01;15.40;99.90
20380;DHT22;10349;48.666;8.948;2023-05-14T10:01:28;15.50;99.90
20380;DHT22;10349;48.666;8.948;2023-05-14T10:03:55;15.70;99.90
20380;DHT22;10349;48.666;8.948;2023-05-14T10:06:24;15.60;99.90
20380;DHT22;10349;48.666;8.948;2023-05-14T10:09:03;15.50;99.90
20380;DHT22;10349;48.666;8.948;2023-05-14T10:11:36;15.10;99.90
20380;DHT22;10349;48.666;8.948;2023-05-14T10:14:07;14.80;99.90
20380;DHT22;10349;48.666;8.948;2023-05-14T10:16:35;14.60;99.90
20380;DHT22;10349;48.666;8.948;2023-05-14T10:19:23;14.50;99.90
20380;DHT22;10349;48.666;8.948;2023-05-14T10:22:03;14.30;99.90
20380;DHT22;10349;48.666;8.948;2023-05-14T10:24:30;14.20;99.90
20380;DHT22;10349;48.666;8.948;2023-05-14T10:26:56;14.00;99.90
20380;DHT22;10349;48.666;8.948;2023-05-14T10:29:36;13.90;99.90
20380;DHT22;10349;48.666;8.948;2023-05-14T10:32:07;13.90;99.90
20380;DHT22;10349;48.666;8.948;2023-05-14T10:34:40;13.90;99.90
20380;DHT22;10349;48.666;8.948;2023-05-14T10:37:16;13.90;99.90
20380;DHT22;10349;48.666;8.948;2023-05-14T10:39:51;13.80;99.90
20380;DHT22;10349;48.666;8.948;2023-05-14T10:42:23;13.90;99.90
20380;DHT22;10349;48.666;8.948;2023-05-14T10:44:59;14.10;99.90
20380;DHT22;10349;48.666;8.948;2023-05-14T10:47:30;14.20;99.90
20380;DHT22;10349;48.666;8.948;2023-05-14T10:50:02;14.20;99.90
20380;DHT22;10349;48.666;8.948;2023-05-14T10:52:29;14.20;99.90
20380;DHT22;10349;48.666;8.948;2023-05-14T10:54:57;14.20;99.90
20380;DHT22;10349;48.666;8.948;2023-05-14T10:57:24;14.30;99.90
20380;DHT22;10349;48.666;8.948;2023-05-14T10:59:53;14.50;99.90
20380;DHT22;10349;48.666;8.948;2023-05-14T11:02:31;14.60;99.90
20380;DHT22;10349;48.666;8.948;2023-05-14T11:05:04;14.70;99.90
20380;DHT22;10349;48.666;8.948;2023-05-14T11:07:32;14.60;99.90
20380;DHT22;10349;48.666;8.948;2023-05-14T11:10:00;14.60;99.90
20380;DHT22;10349;48.666;8.948;2023-05-14T11:12:27;14.50;99.90
20380;DHT22;10349;48.666;8.948;2023-05-14T11:14:56;14.60;99.90
20380;DHT22;10349;48.666;8.948;2023-05-14T11:17:24;14.50;99.90
20380;DHT22;10349;48.666;8.948;2023-05-14T11:19:49;14.40;99.90
20380;DHT22;10349;48.666;8.948;2023-05-14T11:22:15;14.40;99.90
20380;DHT22;10349;48.666;8.948;2023-05-14T11:24:41;14.40;99.90
20380;DHT22;10349;48.666;8.948;2023-05-14T11:27:08;14.40;99.90
20380;DHT22;10349;48.666;8.948;2023-05-14T11:29:35;14.40;99.90
20380;DHT22;10349;48.666;8.948;2023-05-14T11:32:04;14.60;99.90
20380;DHT22;10349;48.666;8.948;2023-05-14T11:34:32;14.70;99.90
20380;DHT22;10349;48.666;8.948;2023-05-14T11:37:02;15.00;99.90
20380;DHT22;10349;48.666;8.948;2023-05-14T11:39:29;15.30;99.90
20380;DHT22;10349;48.666;8.948;2023-05-14T11:42:00;15.60;99.90
20380;DHT22;10349;48.666;8.948;2023-05-14T11:44:27;15.90;99.90
20380;DHT22;10349;48.666;8.948;2023-05-14T11:46:54;16.00;99.90
20380;DHT22;10349;48.666;8.948;2023-05-14T11:49:24;16.20;99.90
20380;DHT22;10349;48.666;8.948;2023-05-14T11:51:59;16.00;99.90
20380;DHT22;10349;48.666;8.948;2023-05-14T11:54:28;16.00;99.90
20380;DHT22;10349;48.666;8.948;2023-05-14T11:56:58;16.20;99.90
20380;DHT22;10349;48.666;8.948;2023-05-14T11:59:29;16.40;99.90
20380;DHT22;10349;48.666;8.948;2023-05-14T12:01:56;16.60;99.90
20380;DHT22;10349;48.666;8.948;2023-05-14T12:04:22;16.70;99.90
20380;DHT22;10349;48.666;8.948;2023-05-14T12:06:52;16.70;99.90
20380;DHT22;10349;48.666;8.948;2023-05-14T12:09:23;16.60;99.90
20380;DHT22;10349;48.666;8.948;2023-05-14T12:12:11;16.40;99.90
20380;DHT22;10349;48.666;8.948;2023-05-14T12:14:38;16.30;99.90
20380;DHT22;10349;48.666;8.948;2023-05-14T12:17:17;16.10;99.90
20380;DHT22;10349;48.666;8.948;2023-05-14T12:19:45;15.80;99.90
20380;DHT22;10349;48.666;8.948;2023-05-14T12:22:13;15.70;99.90
20380;DHT22;10349;48.666;8.948;2023-05-14T12:24:39;15.60;99.90
20380;DHT22;10349;48.666;8.948;2023-05-14T12:27:06;15.60;99.90
20380;DHT22;10349;48.666;8.948;2023-05-14T12:29:35;15.50;99.90
20380;DHT22;10349;48.666;8.948;2023-05-14T12:32:02;15.50;99.90
20380;DHT22;10349;48.666;8.948;2023-05-14T12:34:32;15.30;99.90
20380;DHT22;10349;48.666;8.948;2023-05-14T12:36:58;15.20;99.90
20380;DHT22;10349;48.666;8.948;2023-05-14T12:39:24;15.10;99.90
20380;DHT22;10349;48.666;8.948;2023-05-14T12:41:49;15.10;99.90
20380;DHT22;10349;48.666;8.948;2023-05-14T12:44:15;15.20;99.90
20380;DHT22;10349;48.666;8.948;2023-05-14T12:46:41;15.20;99.90
20380;DHT22;10349;48.666;8.948;2023-05-14T12:49:06;15.20;99.90
20380;DHT22;10349;48.666;8.948;2023-05-14T12:51:32;15.30;99.90
20380;DHT22;10349;48.666;8.948;2023-05-14T12:53:58;15.40;99.90
20380;DHT22;10349;48.666;8.948;2023-05-14T12:56:24;15.50;99.90
20380;DHT22;10349;48.666;8.948;2023-05-14T12:58:55;15.50;99.90
20380;DHT22;10349;48.666;8.948;2023-05-14T13:01:22;15.60;99.90
20380;DHT22;10349;48.666;8.948;2023-05-14T13:03:48;15.70;99.90
20380;DHT22;10349;48.666;8.948;2023-05-14T13:06:14;15.80;99.90
20380;DHT22;10349;48.666;8.948;2023-05-14T13:08:40;15.80;99.90
20380;DHT22;10349;48.666;8.948;2023-05-14T13:11:06;15.90;99.90
20380;DHT22;10349;48.666;8.948;2023-05-14T13:13:32;15.80;99.90
20380;DHT22;10349;48.666;8.948;2023-05-14T13:15:58;15.80;99.90
20380;DHT22;10349;48.666;8.948;2023-05-14T13:18:24;15.60;99.90
20380;DHT22;10349;48.666;8.948;2023-05-14T13:20:52;15.50;99.90
20380;DHT22;10349;48.666;8.948;2023-05-14T13:23:18;15.30;99.90
20380;DHT22;10349;48.666;8.948;2023-05-14T13:25:44;15.10;99.90
20380;DHT22;10349;48.666;8.948;2023-05-14T13:28:10;14.90;99.90
20380;DHT22;10349;48.666;8.948;2023-05-14T13:30:36;14.80;99.90
20380;DHT22;10349;48.666;8.948;2023-05-14T13:33:01;14.70;99.90
20380;DHT22;10349;48.666;8.948;2023-05-14T13:35:27;14.50;99.90
20380;DHT22;10349;48.666;8.948;2023-05-14T13:37:52;14.40;99.90
20380;DHT22;10349;48.666;8.948;2023-05-14T13:40:18;14.50;99.90
20380;DHT22;10349;48.666;8.948;2023-05-14T13:42:44;14.40;99.90
20380;DHT22;10349;48.666;8.948;2023-05-14T13:45:10;14.40;99.90
20380;DHT22;10349;48.666;8.948;2023-05-14T13:47:37;14.40;99.90
20380;DHT22;10349;48.666;8.948;2023-05-14T13:50:03;14.40;99.90
20380;DHT22;10349;48.666;8.948;2023-05-14T13:52:29;14.40;99.90
20380;DHT22;10349;48.666;8.948;2023-05-14T13:54:54;14.50;99.90
20380;DHT22;10349;48.666;8.948;2023-05-14T13:57:21;14.50;99.90
20380;DHT22;10349;48.666;8.948;2023-05-14T13:59:47;14.60;99.90
20380;DHT22;10349;48.666;8.948;2023-05-14T14:02:13;14.70;99.90
20380;DHT22;10349;48.666;8.948;2023-05-14T14:04:39;14.80;99.90
20380;DHT22;10349;48.666;8.948;2023-05-14T14:07:05;14.90;99.90
20380;DHT22;10349;48.666;8.948;2023-05-14T14:09:31;14.90;99.90
20380;DHT22;10349;48.666;8.948;2023-05-14T14:12:01;14.90;99.90
20380;DHT22;10349;48.666;8.948;2023-05-14T14:14:27;14.80;99.90
20380;DHT22;10349;48.666;8.948;2023-05-14T14:16:52;14.90;99.90
20380;DHT22;10349;48.666;8.948;2023-05-14T14:19:19;14.90;99.90
20380;DHT22;10349;48.666;8.948;2023-05-14T14:21:45;14.90;99.90
20380;DHT22;10349;48.666;8.948;2023-05-14T14:24:11;14.90;99.90
20380;DHT22;10349;48.666;8.948;2023-05-14T14:26:36;15.00;99.90
20380;DHT22;10349;48.666;8.948;2023-05-14T14:29:02;15.10;99.90
20380;DHT22;10349;48.666;8.948;2023-05-14T14:31:28;15.10;99.90
20380;DHT22;10349;48.666;8.948;2023-05-14T14:33:54;15.10;99.90
20380;DHT22;10349;48.666;8.948;2023-05-14T14:36:19;15.10;99.90
20380;DHT22;10349;48.666;8.948;2023-05-14T14:38:45;15.10;99.90
20380;DHT22;10349;48.666;8.948;2023-05-14T14:41:11;15.10;99.90
20380;DHT22;10349;48.666;8.948;2023-05-14T14:43:37;15.10;99.90
20380;DHT22;10349;48.666;8.948;2023-05-14T14:46:04;15.00;99.90
20380;DHT22;10349;48.666;8.948;2023-05-14T14:48:34;15.10;99.90
20380;DHT22;10349;48.666;8.948;2023-05-14T14:51:04;15.10;99.90
20380;DHT22;10349;48.666;8.948;2023-05-14T14:53:31;15.10;99.90
20380;DHT22;10349;48.666;8.948;2023-05-14T14:55:57;15.10;99.90
20380;DHT22;10349;48.666;8.948;2023-05-14T14:58:23;15.20;99.90
20380;DHT22;10349;48.666;8.948;2023-05-14T15:00:54;15.30;99.90
20380;DHT22;10349;48.666;8.948;2023-05-14T15:03:21;15.50;99.90
20380;DHT22;10349;48.666;8.948;2023-05-14T15:05:47;15.70;99.90
20380;DHT22;10349;48.666;8.948;2023-05-14T15:08:14;15.90;99.90
20380;DHT22;10349;48.666;8.948;2023-05-14T15:10:40;15.90;99.90
20380;DHT22;10349;48.666;8.948;2023-05-14T15:13:06;15.90;99.90
20380;DHT22;10349;48.666;8.948;2023-05-14T15:15:34;15.90;99.90
20380;DHT22;10349;48.666;8.948;2023-05-14T15:18:00;15.80;99.90
20380;DHT22;10349;48.666;8.948;2023-05-14T15:20:26;15.90;99.90
20380;DHT22;10349;48.666;8.948;2023-05-14T15:22:52;15.90;99.90
20380;DHT22;10349;48.666;8.948;2023-05-14T15:25:22;15.80;99.90
20380;DHT22;10349;48.666;8.948;2023-05-14T15:27:49;15.80;99.90
20380;DHT22;10349;48.666;8.948;2023-05-14T15:30:15;15.90;99.90
20380;DHT22;10349;48.666;8.948;2023-05-14T15:32:41;15.90;99.90
20380;DHT22;10349;48.666;8.948;2023-05-14T15:35:07;15.90;99.90
20380;DHT22;10349;48.666;8.948;2023-05-14T15:37:38;15.90;99.90
20380;DHT22;10349;48.666;8.948;2023-05-14T15:40:04;15.90;99.90
20380;DHT22;10349;48.666;8.948;2023-05-14T15:42:34;16.00;99.90